createdAt,value
2018-12-26T00:01:10.447Z,-1.04
2018-12-26T00:04:00.980Z,-1.18
2018-12-26T00:06:44.511Z,-1.22
2018-12-26T00:09:35.001Z,-1.07
2018-12-26T00:12:18.057Z,-1.09
2018-12-26T00:15:01.234Z,-1.25
2018-12-26T00:17:51.855Z,-1.18
2018-12-26T00:20:35.146Z,-1.21
2018-12-26T00:23:25.698Z,-1.15
2018-12-26T00:26:09.060Z,-1.26
2018-12-26T00:32:22.217Z,-1.38
2018-12-26T00:35:05.854Z,-1.34
2018-12-26T00:37:48.907Z,-1.44
2018-12-26T00:43:59.924Z,-1.45
2018-12-26T00:46:42.845Z,-1.44
2018-12-26T00:49:26.354Z,-1.45
2018-12-26T00:52:17.149Z,-1.36
2018-12-26T00:55:00.400Z,-1.44
2018-12-26T00:57:51.803Z,-1.48
2018-12-26T01:00:34.586Z,-1.59
2018-12-26T01:06:47.841Z,-1.69
2018-12-26T01:09:31.313Z,-2.24
2018-12-26T01:12:14.613Z,-2.28
2018-12-26T01:15:05.329Z,-2.34
2018-12-26T01:17:46.871Z,-2.32
2018-12-26T01:20:37.408Z,-2.13
2018-12-26T01:23:20.229Z,-1.80
2018-12-26T01:26:18.944Z,-1.63
2018-12-26T01:29:04.835Z,-1.55
2018-12-26T01:31:55.371Z,-1.68
2018-12-26T01:34:38.685Z,-1.73
2018-12-26T01:37:29.211Z,-1.58
2018-12-26T01:40:12.676Z,-1.54
2018-12-26T01:43:03.225Z,-1.50
2018-12-26T01:45:46.703Z,-1.56
2018-12-26T01:52:04.373Z,-1.86
2018-12-26T01:54:47.141Z,-1.74
2018-12-26T01:57:30.549Z,-1.63
2018-12-26T02:00:13.901Z,-1.69
2018-12-26T02:03:04.473Z,-1.60
2018-12-26T02:05:48.043Z,-1.51
2018-12-26T02:08:38.617Z,-1.45
2018-12-26T02:11:21.483Z,-1.65
2018-12-26T02:14:12.044Z,-1.89
2018-12-26T02:16:55.448Z,-1.57
2018-12-26T02:19:45.997Z,-1.34
2018-12-26T02:22:29.217Z,-1.40
2018-12-26T02:25:19.745Z,-1.47
2018-12-26T02:28:02.899Z,-1.23
2018-12-26T02:30:53.467Z,-1.21
2018-12-26T02:33:34.976Z,-1.18
2018-12-26T02:36:25.543Z,-1.11
2018-12-26T02:39:08.737Z,-1.19
2018-12-26T02:41:59.305Z,-1.22
2018-12-26T02:44:42.883Z,-1.20
2018-12-26T02:47:33.434Z,-1.26
2018-12-26T02:50:16.910Z,-1.50
2018-12-26T02:52:59.717Z,-1.68
2018-12-26T02:55:50.334Z,-2.09
2018-12-26T02:58:33.829Z,-2.04
2018-12-26T03:01:16.819Z,-1.84
2018-12-26T03:04:07.377Z,-1.57
2018-12-26T03:06:50.329Z,-1.75
2018-12-26T03:09:40.901Z,-1.73
2018-12-26T03:12:24.373Z,-1.70
2018-12-26T03:15:15.832Z,-1.58
2018-12-26T03:17:58.478Z,-1.63
2018-12-26T03:20:49.045Z,-1.59
2018-12-26T03:23:32.243Z,-1.58
2018-12-26T03:26:22.809Z,-1.57
2018-12-26T03:29:05.697Z,-1.58
2018-12-26T03:31:56.345Z,-1.54
2018-12-26T03:34:41.531Z,-1.68
2018-12-26T03:37:32.083Z,-2.01
2018-12-26T03:40:15.013Z,-1.82
2018-12-26T03:43:05.565Z,-2.03
2018-12-26T03:45:48.863Z,-1.89
2018-12-26T03:48:39.529Z,-1.62
2018-12-26T03:51:22.973Z,-1.53
2018-12-26T03:54:05.925Z,-1.86
2018-12-26T03:57:05.595Z,-1.70
2018-12-26T03:59:46.842Z,-1.64
2018-12-26T04:02:37.369Z,-1.62
2018-12-26T04:05:20.478Z,-1.58
2018-12-26T04:08:10.923Z,-1.84
2018-12-26T04:10:54.123Z,-1.68
2018-12-26T04:13:44.659Z,-1.53
2018-12-26T04:16:28.230Z,-1.56
2018-12-26T04:19:18.701Z,-1.62
2018-12-26T04:22:01.594Z,-1.43
2018-12-26T04:24:52.224Z,-1.39
2018-12-26T04:27:35.716Z,-1.46
2018-12-26T04:30:26.250Z,-1.58
2018-12-26T04:33:09.480Z,-1.73
2018-12-26T04:36:00.000Z,-1.67
2018-12-26T04:38:43.406Z,-1.78
2018-12-26T04:41:33.952Z,-1.64
2018-12-26T04:44:17.502Z,-1.57
2018-12-26T04:47:08.050Z,-1.46
2018-12-26T04:49:51.434Z,-1.71
2018-12-26T04:52:41.972Z,-1.57
2018-12-26T04:55:25.377Z,-1.48
2018-12-26T04:58:15.911Z,-1.52
2018-12-26T05:00:58.643Z,-1.59
2018-12-26T05:03:49.178Z,-1.52
2018-12-26T05:06:32.596Z,-1.66
2018-12-26T05:09:23.076Z,-1.45
2018-12-26T05:12:07.839Z,-1.53
2018-12-26T05:14:58.392Z,-1.37
2018-12-26T05:17:41.764Z,-1.52
2018-12-26T05:20:32.290Z,-1.42
2018-12-26T05:23:13.864Z,-1.38
2018-12-26T05:26:04.376Z,-1.25
2018-12-26T05:28:46.017Z,-1.18
2018-12-26T05:31:36.562Z,-1.14
2018-12-26T05:34:20.118Z,-1.03
2018-12-26T05:37:10.687Z,-1.30
2018-12-26T05:39:54.234Z,-1.32
2018-12-26T05:42:44.739Z,-1.08
2018-12-26T05:45:28.066Z,-0.95
2018-12-26T05:48:18.604Z,-0.91
2018-12-26T05:51:01.927Z,-0.82
2018-12-26T05:53:52.475Z,-0.86
2018-12-26T05:56:35.424Z,-0.90
2018-12-26T05:59:25.954Z,-0.60
2018-12-26T06:02:09.376Z,-0.88
2018-12-26T06:04:59.908Z,-0.93
2018-12-26T06:07:43.155Z,-1.02
2018-12-26T06:10:33.696Z,-1.18
2018-12-26T06:13:16.949Z,-1.00
2018-12-26T06:16:07.502Z,-1.03
2018-12-26T06:18:48.906Z,-0.87
2018-12-26T06:21:39.462Z,-0.96
2018-12-26T06:24:22.616Z,-0.86
2018-12-26T06:27:13.070Z,-0.87
2018-12-26T06:29:56.274Z,-0.88
2018-12-26T06:32:46.759Z,-0.90
2018-12-26T06:35:29.745Z,-0.65
2018-12-26T06:38:20.291Z,-0.99
2018-12-26T06:41:03.686Z,-0.91
2018-12-26T06:43:54.204Z,-0.93
2018-12-26T06:46:37.393Z,-0.83
2018-12-26T06:49:27.924Z,-1.08
2018-12-26T06:52:11.433Z,-1.08
2018-12-26T06:55:01.960Z,-1.10
2018-12-26T06:57:45.376Z,-1.31
2018-12-26T07:00:28.436Z,-1.30
2018-12-26T07:03:11.890Z,-1.08
2018-12-26T07:06:02.423Z,-1.06
2018-12-26T07:08:45.764Z,-1.06
2018-12-26T07:11:36.296Z,-1.07
2018-12-26T07:14:19.758Z,-1.12
2018-12-26T07:17:10.284Z,-1.11
2018-12-26T07:19:53.802Z,-1.23
2018-12-26T07:22:44.266Z,-1.32
2018-12-26T07:25:27.562Z,-1.21
2018-12-26T07:28:18.072Z,-1.32
2018-12-26T07:31:01.432Z,-1.24
2018-12-26T07:33:51.965Z,-1.28
2018-12-26T07:36:35.452Z,-1.49
2018-12-26T07:39:25.990Z,-1.49
2018-12-26T07:42:09.324Z,-1.37
2018-12-26T07:45:00.028Z,-1.09
2018-12-26T07:47:43.385Z,-0.87
2018-12-26T07:50:33.927Z,-0.48
2018-12-26T07:53:15.483Z,-0.61
2018-12-26T07:56:06.034Z,-0.24
2018-12-26T07:58:49.443Z,-0.39
2018-12-26T08:01:32.435Z,-0.59
2018-12-26T08:04:13.986Z,-0.23
2018-12-26T08:07:04.514Z,0.13
2018-12-26T08:09:47.881Z,0.23
2018-12-26T08:12:38.440Z,0.24
2018-12-26T08:15:22.802Z,0.77
2018-12-26T08:18:13.375Z,0.28
2018-12-26T08:20:56.585Z,0.28
2018-12-26T08:23:47.147Z,0.33
2018-12-26T08:26:30.285Z,0.56
2018-12-26T08:32:40.712Z,0.88
2018-12-26T08:35:24.146Z,0.67
2018-12-26T08:38:07.185Z,0.56
2018-12-26T08:40:49.907Z,0.60
2018-12-26T08:43:33.331Z,0.63
2018-12-26T08:46:23.848Z,1.39
2018-12-26T08:49:06.607Z,2.68
2018-12-26T08:55:19.715Z,1.67
2018-12-26T08:58:02.853Z,1.32
2018-12-26T09:00:45.900Z,1.40
2018-12-26T09:03:36.420Z,1.32
2018-12-26T09:06:17.983Z,1.18
2018-12-26T09:09:08.489Z,1.22
2018-12-26T09:11:52.132Z,2.01
2018-12-26T09:14:42.637Z,0.93
2018-12-26T09:17:24.220Z,1.28
2018-12-26T09:23:37.256Z,1.01
2018-12-26T09:26:20.013Z,1.29
2018-12-26T09:29:10.510Z,2.11
2018-12-26T09:31:53.880Z,4.54
2018-12-26T09:34:44.416Z,3.06
2018-12-26T09:37:27.474Z,2.97
2018-12-26T09:46:21.966Z,2.35
2018-12-26T09:49:05.477Z,2.01
2018-12-26T09:54:58.246Z,3.07
2018-12-26T09:57:41.399Z,3.27
2018-12-26T10:00:24.298Z,2.64
2018-12-26T10:03:07.162Z,3.10
2018-12-26T10:05:57.700Z,3.05
2018-12-26T10:08:39.222Z,3.33
2018-12-26T10:14:52.508Z,3.42
2018-12-26T10:17:35.417Z,3.52
2018-12-26T10:20:18.441Z,3.96
2018-12-26T10:26:28.710Z,3.46
2018-12-26T10:29:12.299Z,3.61
2018-12-26T10:32:02.913Z,3.46
2018-12-26T10:34:44.399Z,3.11
2018-12-26T10:37:34.979Z,3.20
2018-12-26T10:40:17.834Z,3.40
2018-12-26T10:43:08.386Z,3.36
2018-12-26T10:45:51.760Z,3.76
2018-12-26T10:48:42.335Z,4.08
2018-12-26T10:51:27.366Z,4.07
2018-12-26T10:54:17.931Z,3.95
2018-12-26T10:57:00.803Z,3.97
2018-12-26T10:59:51.312Z,3.83
2018-12-26T11:02:34.556Z,4.05
2018-12-26T11:05:17.540Z,3.65
2018-12-26T11:08:08.121Z,3.85
2018-12-26T11:10:50.855Z,4.01
2018-12-26T11:13:41.476Z,3.84
2018-12-26T11:16:24.598Z,3.88
2018-12-26T11:19:15.146Z,3.86
2018-12-26T11:21:59.964Z,3.69
2018-12-26T11:24:50.554Z,3.53
2018-12-26T11:27:32.239Z,3.66
2018-12-26T11:33:42.669Z,3.69
2018-12-26T11:36:25.600Z,3.89
2018-12-26T11:39:09.159Z,3.56
2018-12-26T11:41:59.733Z,3.68
2018-12-26T11:44:42.403Z,3.50
2018-12-26T11:47:32.939Z,3.52
2018-12-26T11:50:15.709Z,3.58
2018-12-26T11:56:29.108Z,3.60
2018-12-26T11:59:11.877Z,3.68
2018-12-26T12:01:55.182Z,3.72
2018-12-26T12:04:45.784Z,3.72
2018-12-26T12:07:29.288Z,3.75
2018-12-26T12:13:40.277Z,3.29
2018-12-26T12:16:23.608Z,3.04
2018-12-26T12:19:06.857Z,2.98
2018-12-26T12:21:57.391Z,3.04
2018-12-26T12:24:40.534Z,3.17
2018-12-26T12:30:53.902Z,2.89
2018-12-26T12:33:37.005Z,3.25
2018-12-26T12:36:18.644Z,3.31
2018-12-26T12:39:09.219Z,3.11
2018-12-26T12:41:52.046Z,3.16
2018-12-26T12:48:10.543Z,2.85
2018-12-26T12:50:53.913Z,3.04
2018-12-26T12:53:37.116Z,2.88
2018-12-26T13:02:49.045Z,2.89
2018-12-26T13:05:32.305Z,3.02
2018-12-26T13:08:23.820Z,2.99
2018-12-26T13:11:06.903Z,3.09
2018-12-26T13:13:57.558Z,2.80
2018-12-26T13:16:41.008Z,2.42
2018-12-26T13:19:31.708Z,2.38
2018-12-26T13:22:15.168Z,2.29
2018-12-26T13:25:05.990Z,1.99
2018-12-26T13:27:49.205Z,2.22
2018-12-26T13:33:41.853Z,2.53
2018-12-26T13:36:32.390Z,2.43
2018-12-26T13:39:15.819Z,1.79
2018-12-26T13:42:06.387Z,2.06
2018-12-26T13:44:49.656Z,2.15
2018-12-26T13:51:05.185Z,2.01
2018-12-26T13:53:46.746Z,1.78
2018-12-26T13:56:28.267Z,1.81
2018-12-26T14:02:31.881Z,1.56
2018-12-26T14:05:14.847Z,1.73
2018-12-26T14:07:56.377Z,1.62
2018-12-26T14:10:46.926Z,1.61
2018-12-26T14:13:31.659Z,1.58
2018-12-26T14:44:01.926Z,0.93
2018-12-26T14:46:44.678Z,0.79
2018-12-26T14:49:35.236Z,0.84
2018-12-26T14:52:18.649Z,0.74
2018-12-26T15:01:04.831Z,1.10
2018-12-26T15:03:47.791Z,0.85
2018-12-26T15:06:29.298Z,0.84
2018-12-26T15:12:23.064Z,0.67
2018-12-26T15:15:13.608Z,0.65
2018-12-26T15:17:57.222Z,0.27
2018-12-26T15:24:14.706Z,0.40
2018-12-26T15:26:57.592Z,0.60
2018-12-26T15:29:41.117Z,0.52
2018-12-26T15:38:54.185Z,1.08
2018-12-26T15:41:37.383Z,0.80
2018-12-26T15:50:32.034Z,0.18
2018-12-26T15:53:16.478Z,-0.02
2018-12-26T16:02:03.884Z,0.22
2018-12-26T16:04:47.056Z,0.03
2018-12-26T16:07:29.955Z,-0.44
2018-12-26T16:13:40.590Z,-0.49
2018-12-26T16:16:24.225Z,-0.57
2018-12-26T16:19:14.758Z,-0.72
2018-12-26T16:22:16.858Z,-0.72
2018-12-26T16:25:07.996Z,-0.80
2018-12-26T16:27:39.412Z,-0.79
2018-12-26T16:30:11.171Z,-0.48
2018-12-26T16:32:42.697Z,-0.61
2018-12-26T16:35:14.199Z,-0.68
2018-12-26T16:37:45.596Z,-0.65
2018-12-26T16:40:17.088Z,-0.80
2018-12-26T16:42:48.516Z,-0.54
2018-12-26T16:45:20.937Z,-0.83
2018-12-26T16:47:52.419Z,-0.80
2018-12-26T16:50:27.186Z,-0.88
2018-12-26T16:52:57.147Z,-0.83
2018-12-26T16:55:47.834Z,-1.08
2018-12-26T16:58:31.062Z,-1.44
2018-12-26T17:01:14.527Z,-1.17
2018-12-26T17:03:57.679Z,-1.10
2018-12-26T17:06:41.113Z,-1.16
2018-12-26T17:09:31.631Z,-1.45
2018-12-26T17:12:14.808Z,-1.44
2018-12-26T17:15:05.465Z,-1.65
2018-12-26T17:17:49.055Z,-1.31
2018-12-26T17:20:39.591Z,-1.48
2018-12-26T17:23:22.930Z,-1.24
2018-12-26T17:35:37.435Z,-1.36
2018-12-26T17:38:20.545Z,-1.32
2018-12-26T17:41:11.164Z,-1.30
2018-12-26T17:43:54.561Z,-1.22
2018-12-26T17:46:45.308Z,-1.08
2018-12-26T17:49:29.033Z,-1.27
2018-12-26T17:56:03.214Z,-1.40
2018-12-26T17:58:53.942Z,-1.29
2018-12-26T18:04:49.300Z,-1.52
2018-12-26T18:07:32.760Z,-1.59
2018-12-26T18:10:15.753Z,-1.90
2018-12-26T18:13:06.354Z,-1.64
2018-12-26T18:15:49.362Z,-2.02
2018-12-26T18:22:02.547Z,-1.79
2018-12-26T18:24:46.100Z,-2.06
2018-12-26T18:27:36.717Z,-1.85
2018-12-26T18:30:21.271Z,-1.90
2018-12-26T18:39:17.322Z,-2.03
2018-12-26T18:41:58.991Z,-2.32
2018-12-26T18:50:53.033Z,-2.31
2018-12-26T18:53:36.270Z,-2.56
2018-12-26T19:02:22.524Z,-2.35
2018-12-26T19:05:06.524Z,-2.31
2018-12-26T19:07:49.931Z,-1.98
2018-12-26T19:14:03.264Z,-2.09
2018-12-26T19:16:44.913Z,-2.25
2018-12-26T19:19:27.883Z,-2.10
2018-12-26T19:22:11.426Z,-2.10
2018-12-26T19:24:53.099Z,-2.18
2018-12-26T19:31:03.547Z,-2.04
2018-12-26T19:33:46.825Z,-2.18
2018-12-26T19:36:30.408Z,-2.13
2018-12-26T19:42:41.414Z,-2.35
2018-12-26T19:45:24.774Z,-2.35
2018-12-26T19:48:07.678Z,-2.40
2018-12-26T19:54:18.116Z,-2.72
2018-12-26T19:57:01.287Z,-2.47
2018-12-26T19:59:44.849Z,-2.72
2018-12-26T20:09:16.989Z,-2.93
2018-12-26T20:12:02.125Z,-2.71
2018-12-26T20:20:56.263Z,-2.66
2018-12-26T20:23:39.716Z,-2.72
2018-12-26T20:29:55.442Z,-2.44
2018-12-26T20:32:38.518Z,-2.86
2018-12-26T20:35:21.773Z,-2.72
2018-12-26T20:41:32.469Z,-2.83
2018-12-26T20:44:16.037Z,-2.93
2018-12-26T20:46:59.160Z,-2.99
2018-12-26T21:02:07.880Z,-2.74
2018-12-26T21:04:51.227Z,-2.76
2018-12-26T21:11:02.246Z,-3.28
2018-12-26T21:13:45.892Z,-2.68
2018-12-26T21:19:37.935Z,-2.56
2018-12-26T21:22:21.323Z,-2.72
2018-12-26T21:25:11.879Z,-2.99
2018-12-26T21:27:55.443Z,-3.14
2018-12-26T21:31:05.200Z,-2.74
2018-12-26T21:33:49.878Z,-2.79
2018-12-26T21:40:07.902Z,-2.75
2018-12-26T21:42:50.957Z,-2.68
2018-12-26T21:45:32.560Z,-2.61
2018-12-26T21:48:23.108Z,-2.42
2018-12-26T21:51:06.459Z,-2.71
2018-12-26T21:53:57.025Z,-2.80
2018-12-26T21:56:40.474Z,-2.59
2018-12-26T21:59:31.067Z,-2.66
2018-12-26T22:02:22.370Z,-2.82
2018-12-26T22:08:34.828Z,-2.79
2018-12-26T22:11:16.386Z,-2.99
2018-12-26T22:14:00.000Z,-2.91
2018-12-26T22:20:10.861Z,-2.93
2018-12-26T22:22:53.849Z,-3.00
2018-12-26T22:25:37.359Z,-2.92
2018-12-26T22:31:48.482Z,-2.92
2018-12-26T22:34:31.608Z,-2.83
2018-12-26T22:37:15.066Z,-2.83
2018-12-26T22:43:25.906Z,-2.84
2018-12-26T22:46:09.103Z,-2.95
2018-12-26T22:48:52.356Z,-2.99
2018-12-26T22:55:02.775Z,-3.08
2018-12-26T22:57:45.742Z,-3.18
2018-12-26T23:03:56.218Z,-3.20
2018-12-26T23:06:39.610Z,-3.03
2018-12-26T23:12:52.753Z,-3.22
2018-12-26T23:15:35.812Z,-3.18
2018-12-26T23:18:19.141Z,-3.58
2018-12-26T23:24:29.890Z,-3.35
2018-12-26T23:27:13.357Z,-3.08
2018-12-26T23:33:05.572Z,-3.25
2018-12-26T23:35:49.118Z,-3.31
2018-12-26T23:42:05.800Z,-3.05
2018-12-26T23:44:47.299Z,-3.12
2018-12-26T23:47:28.950Z,-3.28
2018-12-26T23:53:39.976Z,-3.48
2018-12-26T23:56:22.700Z,-3.48
2018-12-26T23:59:06.034Z,-3.44
